createdAt,value
2023-04-09T00:01:10.081Z,20.95
2023-04-09T00:03:38.482Z,19.35
2023-04-09T00:06:06.290Z,20.15
2023-04-09T00:08:33.387Z,19.20
2023-04-09T00:11:00.728Z,19.42
2023-04-09T00:13:38.750Z,20.25
2023-04-09T00:16:07.899Z,20.25
2023-04-09T00:18:34.976Z,19.67
2023-04-09T00:21:02.017Z,19.58
2023-04-09T00:23:29.141Z,21.10
2023-04-09T00:25:56.209Z,20.75
2023-04-09T00:28:23.193Z,20.67
2023-04-09T00:30:50.363Z,20.55
2023-04-09T00:33:17.267Z,20.92
2023-04-09T00:35:44.242Z,20.63
2023-04-09T00:38:11.258Z,20.80
2023-04-09T00:40:38.181Z,20.23
2023-04-09T00:43:05.725Z,20.02
2023-04-09T00:45:33.247Z,21.00
2023-04-09T00:48:00.409Z,20.77
2023-04-09T00:50:27.556Z,20.45
2023-04-09T00:52:54.607Z,19.48
2023-04-09T00:55:22.412Z,19.65
2023-04-09T00:57:49.854Z,19.13
2023-04-09T01:00:17.202Z,18.95
2023-04-09T01:02:44.585Z,19.85
2023-04-09T01:05:13.122Z,20.55
2023-04-09T01:08:46.583Z,19.95
2023-04-09T01:11:56.806Z,19.88
2023-04-09T01:17:34.930Z,19.92
2023-04-09T01:20:12.032Z,20.88
2023-04-09T01:23:19.626Z,20.23
2023-04-09T01:26:12.019Z,21.10
2023-04-09T01:28:54.047Z,18.85
2023-04-09T01:31:30.025Z,20.83
2023-04-09T01:33:57.770Z,19.95
2023-04-09T01:36:26.490Z,21.58
2023-04-09T01:38:56.007Z,19.95
2023-04-09T01:41:24.383Z,20.40
2023-04-09T01:43:52.613Z,20.55
2023-04-09T01:46:22.028Z,20.02
2023-04-09T01:48:50.564Z,21.45
2023-04-09T01:51:18.487Z,20.48
2023-04-09T01:53:45.683Z,20.17
2023-04-09T01:56:12.739Z,20.17
2023-04-09T01:58:40.920Z,21.88
2023-04-09T02:01:17.079Z,19.33
2023-04-09T02:03:54.815Z,19.13
2023-04-09T02:06:50.618Z,20.75
2023-04-09T02:09:20.669Z,20.70
2023-04-09T02:11:49.986Z,18.00
2023-04-09T02:14:18.719Z,18.15
2023-04-09T02:16:48.478Z,18.85
2023-04-09T02:19:15.686Z,18.48
2023-04-09T02:21:42.738Z,20.85
2023-04-09T02:24:09.971Z,20.65
2023-04-09T02:26:36.938Z,20.17
2023-04-09T02:29:03.983Z,21.42
2023-04-09T02:31:30.985Z,19.38
2023-04-09T02:33:58.034Z,19.98
2023-04-09T02:36:25.992Z,18.88
2023-04-09T02:38:53.009Z,16.75
2023-04-09T02:41:20.055Z,19.63
2023-04-09T02:43:47.042Z,19.70
2023-04-09T02:46:14.043Z,16.85
2023-04-09T02:48:41.053Z,18.85
2023-04-09T02:51:08.344Z,19.25
2023-04-09T02:53:35.373Z,19.35
2023-04-09T02:56:02.301Z,20.85
2023-04-09T02:58:29.237Z,19.58
2023-04-09T03:00:56.216Z,20.23
2023-04-09T03:03:23.342Z,18.60
2023-04-09T03:05:50.415Z,18.38
2023-04-09T03:08:17.408Z,17.88
2023-04-09T03:10:44.408Z,18.67
2023-04-09T03:13:11.388Z,17.90
2023-04-09T03:15:38.346Z,17.73
2023-04-09T03:18:05.436Z,17.60
2023-04-09T03:20:32.485Z,17.25
2023-04-09T03:22:59.463Z,17.40
2023-04-09T03:25:34.732Z,17.25
2023-04-09T03:28:10.440Z,17.58
2023-04-09T03:30:44.039Z,17.33
2023-04-09T03:33:11.544Z,17.77
2023-04-09T03:35:48.662Z,17.52
2023-04-09T03:38:18.384Z,15.95
2023-04-09T03:40:45.504Z,17.33
2023-04-09T03:43:12.442Z,17.98
2023-04-09T03:45:45.608Z,17.17
2023-04-09T03:48:21.636Z,16.48
2023-04-09T03:50:49.302Z,18.23
2023-04-09T03:53:23.566Z,17.88
2023-04-09T03:55:50.664Z,16.90
2023-04-09T03:58:23.662Z,19.70
2023-04-09T04:00:51.062Z,18.33
2023-04-09T04:03:32.543Z,17.50
2023-04-09T04:06:13.267Z,18.85
2023-04-09T04:09:00.960Z,18.63
2023-04-09T04:11:37.480Z,17.17
2023-04-09T04:14:04.474Z,18.05
2023-04-09T04:16:32.363Z,19.50
2023-04-09T04:19:00.112Z,17.73
2023-04-09T04:21:28.893Z,17.75
2023-04-09T04:24:01.061Z,17.13
2023-04-09T04:26:29.776Z,18.92
2023-04-09T04:28:56.988Z,17.10
2023-04-09T04:31:45.037Z,19.55
2023-04-09T04:34:13.617Z,17.77
2023-04-09T04:36:43.064Z,18.88
2023-04-09T04:39:10.192Z,17.70
2023-04-09T04:41:49.723Z,19.50
2023-04-09T04:44:21.564Z,19.45
2023-04-09T04:46:52.561Z,17.10
2023-04-09T04:49:19.570Z,18.92
2023-04-09T04:51:48.072Z,19.27
2023-04-09T04:54:16.456Z,17.55
2023-04-09T04:56:53.098Z,18.30
2023-04-09T04:59:32.262Z,17.17
2023-04-09T05:02:04.329Z,17.08
2023-04-09T05:04:36.846Z,19.25
2023-04-09T05:07:04.928Z,17.40
2023-04-09T05:09:31.892Z,17.95
2023-04-09T05:12:06.435Z,16.92
2023-04-09T05:14:34.808Z,17.88
2023-04-09T05:17:01.837Z,17.02
2023-04-09T05:19:39.521Z,17.10
2023-04-09T05:22:06.909Z,16.98
2023-04-09T05:24:34.767Z,16.60
2023-04-09T05:27:01.844Z,16.38
2023-04-09T05:29:29.558Z,17.00
2023-04-09T05:31:56.684Z,16.33
2023-04-09T05:34:31.706Z,16.27
2023-04-09T05:36:58.748Z,16.25
2023-04-09T05:39:26.182Z,16.15
2023-04-09T05:41:53.504Z,17.92
2023-04-09T05:44:32.086Z,16.48
2023-04-09T05:47:07.249Z,15.68
2023-04-09T05:49:41.798Z,16.77
2023-04-09T05:52:12.852Z,16.75
2023-04-09T05:54:39.946Z,16.38
2023-04-09T05:57:09.037Z,15.73
2023-04-09T05:59:38.759Z,17.52
2023-04-09T06:02:06.125Z,17.27
2023-04-09T06:04:33.815Z,16.50
2023-04-09T06:07:01.428Z,17.33
2023-04-09T06:09:28.439Z,17.10
2023-04-09T06:11:55.783Z,17.13
2023-04-09T06:14:22.760Z,17.85
2023-04-09T06:16:49.902Z,18.80
2023-04-09T06:19:17.812Z,15.55
2023-04-09T06:21:45.019Z,16.35
2023-04-09T06:24:12.312Z,16.98
2023-04-09T06:26:39.419Z,16.10
2023-04-09T06:29:09.744Z,16.83
2023-04-09T06:31:36.869Z,15.60
2023-04-09T06:34:04.147Z,17.52
2023-04-09T06:36:31.240Z,16.52
2023-04-09T06:39:01.104Z,16.48
2023-04-09T06:41:28.142Z,16.52
2023-04-09T06:43:55.308Z,17.20
2023-04-09T06:46:22.450Z,16.98
2023-04-09T06:48:49.730Z,15.85
2023-04-09T06:51:16.710Z,15.10
2023-04-09T06:53:43.819Z,16.20
2023-04-09T06:56:11.491Z,17.38
2023-04-09T06:58:38.446Z,17.08
2023-04-09T07:01:06.133Z,16.45
2023-04-09T07:03:33.476Z,17.13
2023-04-09T07:06:01.003Z,19.90
2023-04-09T07:08:28.703Z,18.70
2023-04-09T07:10:56.286Z,17.35
2023-04-09T07:13:26.328Z,18.60
2023-04-09T07:15:53.514Z,18.33
2023-04-09T07:18:20.851Z,16.85
2023-04-09T07:20:47.855Z,18.42
2023-04-09T07:23:14.959Z,20.20
2023-04-09T07:25:42.372Z,17.02
2023-04-09T07:28:09.686Z,18.40
2023-04-09T07:30:36.702Z,17.77
2023-04-09T07:33:04.119Z,17.48
2023-04-09T07:35:32.069Z,18.85
2023-04-09T07:37:59.169Z,18.65
2023-04-09T07:40:26.525Z,18.00
2023-04-09T07:42:55.855Z,20.90
2023-04-09T07:45:22.790Z,19.00
2023-04-09T07:47:49.898Z,16.58
2023-04-09T07:50:17.013Z,17.98
2023-04-09T07:52:44.410Z,17.25
2023-04-09T07:55:11.656Z,18.02
2023-04-09T07:57:38.773Z,19.38
2023-04-09T08:00:06.940Z,18.38
2023-04-09T08:02:40.977Z,17.60
2023-04-09T08:05:09.302Z,17.42
2023-04-09T08:07:36.968Z,17.30
2023-04-09T08:10:05.920Z,19.33
2023-04-09T08:12:34.263Z,17.65
2023-04-09T08:15:03.805Z,17.92
2023-04-09T08:17:31.070Z,18.48
2023-04-09T08:19:58.328Z,17.08
2023-04-09T08:22:25.580Z,16.38
2023-04-09T08:24:53.418Z,16.27
2023-04-09T08:27:21.447Z,17.65
2023-04-09T08:29:48.507Z,15.30
2023-04-09T08:32:15.799Z,14.77
2023-04-09T08:34:42.824Z,16.27
2023-04-09T08:37:09.935Z,16.15
2023-04-09T08:39:36.987Z,14.02
2023-04-09T08:42:07.237Z,13.75
2023-04-09T08:44:34.379Z,13.57
2023-04-09T08:47:02.711Z,13.23
2023-04-09T08:49:29.865Z,14.65
2023-04-09T08:51:57.027Z,14.05
2023-04-09T08:54:26.649Z,14.52
2023-04-09T08:56:53.826Z,13.35
2023-04-09T08:59:20.912Z,14.25
2023-04-09T09:01:53.668Z,14.20
2023-04-09T09:04:20.806Z,13.90
2023-04-09T09:06:48.013Z,14.75
2023-04-09T09:09:17.278Z,13.65
2023-04-09T09:11:47.063Z,13.25
2023-04-09T09:14:19.961Z,14.65
2023-04-09T09:16:56.217Z,14.15
2023-04-09T09:19:26.549Z,13.43
2023-04-09T09:21:57.589Z,13.85
2023-04-09T09:24:24.758Z,14.05
2023-04-09T09:26:54.526Z,12.88
2023-04-09T09:29:21.858Z,12.75
2023-04-09T09:31:51.948Z,13.80
2023-04-09T09:34:21.303Z,14.13
2023-04-09T09:36:48.818Z,13.65
2023-04-09T09:39:17.660Z,12.27
2023-04-09T09:41:47.260Z,12.52
2023-04-09T09:44:32.269Z,12.57
2023-04-09T09:46:59.530Z,12.75
2023-04-09T09:49:26.493Z,12.10
2023-04-09T09:51:57.644Z,12.23
2023-04-09T09:54:28.361Z,10.77
2023-04-09T09:57:02.099Z,10.48
2023-04-09T09:59:36.862Z,10.80
2023-04-09T10:02:18.954Z,10.37
2023-04-09T10:04:46.824Z,10.63
2023-04-09T10:07:16.092Z,10.32
2023-04-09T10:09:49.990Z,9.88
2023-04-09T10:12:18.225Z,10.27
2023-04-09T10:14:46.062Z,9.98
2023-04-09T10:17:13.299Z,9.23
2023-04-09T10:19:56.423Z,9.32
2023-04-09T10:22:27.287Z,9.85
2023-04-09T10:24:55.793Z,8.95
2023-04-09T10:27:22.854Z,8.88
2023-04-09T10:29:52.098Z,8.80
2023-04-09T10:32:26.514Z,9.43
2023-04-09T10:34:57.748Z,8.38
2023-04-09T10:37:27.186Z,9.75
2023-04-09T10:39:54.518Z,9.52
2023-04-09T10:42:31.894Z,9.85
2023-04-09T10:45:14.396Z,8.82
2023-04-09T10:47:43.475Z,9.20
2023-04-09T10:50:24.508Z,9.40
2023-04-09T10:52:57.451Z,8.40
2023-04-09T10:55:39.208Z,8.95
2023-04-09T10:58:12.731Z,9.68
2023-04-09T11:00:43.259Z,9.30
2023-04-09T11:03:27.834Z,9.13
2023-04-09T11:06:05.937Z,8.95
2023-04-09T11:08:34.195Z,9.38
2023-04-09T11:11:02.213Z,9.38
2023-04-09T11:13:31.715Z,8.68
2023-04-09T11:16:00.271Z,8.50
2023-04-09T11:18:30.051Z,7.45
2023-04-09T11:21:01.029Z,8.60
2023-04-09T11:23:28.901Z,8.57
2023-04-09T11:25:56.627Z,9.05
2023-04-09T11:28:24.305Z,8.45
2023-04-09T11:30:52.455Z,7.90
2023-04-09T11:33:20.576Z,8.32
2023-04-09T11:35:48.760Z,7.60
2023-04-09T11:38:16.177Z,7.00
2023-04-09T11:40:51.559Z,6.03
2023-04-09T11:43:20.911Z,7.38
2023-04-09T11:45:48.709Z,7.43
2023-04-09T11:48:21.670Z,7.07
2023-04-09T11:50:49.010Z,8.25
2023-04-09T11:53:23.867Z,6.65
2023-04-09T11:55:53.075Z,7.00
2023-04-09T11:58:24.621Z,7.28
2023-04-09T12:00:58.747Z,6.65
2023-04-09T12:03:33.504Z,6.80
2023-04-09T12:06:02.755Z,7.05
2023-04-09T12:08:31.175Z,7.72
2023-04-09T12:11:08.326Z,7.68
2023-04-09T12:13:35.326Z,7.57
2023-04-09T12:16:05.184Z,7.63
2023-04-09T12:18:36.502Z,6.28
2023-04-09T12:21:03.884Z,6.55
2023-04-09T12:23:34.061Z,7.30
2023-04-09T12:26:02.018Z,7.25
2023-04-09T12:28:29.518Z,7.03
2023-04-09T12:30:57.747Z,7.30
2023-04-09T12:33:25.071Z,6.28
2023-04-09T12:35:52.229Z,7.28
2023-04-09T12:38:19.342Z,7.72
2023-04-09T12:40:46.766Z,7.45
2023-04-09T12:43:13.770Z,6.75
2023-04-09T12:45:40.882Z,7.43
2023-04-09T12:48:07.945Z,7.32
2023-04-09T12:50:34.990Z,7.70
2023-04-09T12:53:02.024Z,7.25
2023-04-09T12:55:29.131Z,7.10
2023-04-09T12:57:56.145Z,7.35
2023-04-09T13:00:23.306Z,7.20
2023-04-09T13:02:52.786Z,7.50
2023-04-09T13:05:20.323Z,6.95
2023-04-09T13:07:47.699Z,7.45
2023-04-09T13:10:14.750Z,7.25
2023-04-09T13:12:41.843Z,6.63
2023-04-09T13:15:09.229Z,8.30
2023-04-09T13:17:36.213Z,7.95
2023-04-09T13:20:03.805Z,7.85
2023-04-09T13:22:31.041Z,7.80
2023-04-09T13:24:58.040Z,7.18
2023-04-09T13:27:25.154Z,8.07
2023-04-09T13:29:52.121Z,8.15
2023-04-09T13:32:21.208Z,7.80
2023-04-09T13:34:48.538Z,8.70
2023-04-09T13:37:15.854Z,8.13
2023-04-09T13:39:44.877Z,7.70
2023-04-09T13:42:14.151Z,7.70
2023-04-09T13:44:44.523Z,7.20
2023-04-09T13:47:16.907Z,7.68
2023-04-09T13:49:44.041Z,7.00
2023-04-09T13:52:11.778Z,8.25
2023-04-09T13:54:38.838Z,8.05
2023-04-09T13:57:05.977Z,7.97
2023-04-09T13:59:32.985Z,7.63
2023-04-09T14:02:00.472Z,7.50
2023-04-09T14:04:27.859Z,7.75
2023-04-09T14:06:55.094Z,6.78
2023-04-09T14:09:22.203Z,6.60
2023-04-09T14:11:49.667Z,6.03
2023-04-09T14:14:17.669Z,7.22
2023-04-09T14:16:44.681Z,7.28
2023-04-09T14:19:11.712Z,6.38
2023-04-09T14:21:40.313Z,7.10
2023-04-09T14:24:07.732Z,7.18
2023-04-09T14:26:34.736Z,7.32
2023-04-09T14:29:01.966Z,7.25
2023-04-09T14:31:29.050Z,6.80
2023-04-09T14:33:56.748Z,7.00
2023-04-09T14:36:23.706Z,6.50
2023-04-09T14:38:51.258Z,6.32
2023-04-09T14:41:18.690Z,6.72
2023-04-09T14:43:45.932Z,6.50
2023-04-09T14:46:13.116Z,6.38
2023-04-09T14:48:40.575Z,5.97
2023-04-09T14:51:10.886Z,6.57
2023-04-09T14:53:38.757Z,6.70
2023-04-09T14:56:06.692Z,6.03
2023-04-09T14:58:33.696Z,6.28
2023-04-09T15:01:00.905Z,6.03
2023-04-09T15:03:28.237Z,7.25
2023-04-09T15:05:55.513Z,6.88
2023-04-09T15:08:23.632Z,6.10
2023-04-09T15:10:51.336Z,5.65
2023-04-09T15:13:18.401Z,5.43
2023-04-09T15:15:45.474Z,6.88
2023-04-09T15:18:12.546Z,6.68
2023-04-09T15:20:40.073Z,6.72
2023-04-09T15:23:07.182Z,5.07
2023-04-09T15:25:34.180Z,5.43
2023-04-09T15:28:03.199Z,6.05
2023-04-09T15:30:30.241Z,5.30
2023-04-09T15:32:57.855Z,4.93
2023-04-09T15:35:26.616Z,5.07
2023-04-09T15:37:53.956Z,6.00
2023-04-09T15:40:21.239Z,5.15
2023-04-09T15:42:48.258Z,5.00
2023-04-09T15:45:16.418Z,5.38
2023-04-09T15:47:47.342Z,4.88
2023-04-09T15:50:14.948Z,5.07
2023-04-09T15:52:42.040Z,6.13
2023-04-09T15:55:09.889Z,4.82
2023-04-09T15:57:38.552Z,5.05
2023-04-09T16:00:10.572Z,5.38
2023-04-09T16:02:39.002Z,5.28
2023-04-09T16:05:07.226Z,5.15
2023-04-09T16:07:34.775Z,5.50
2023-04-09T16:10:02.532Z,5.55
2023-04-09T16:12:29.559Z,6.07
2023-04-09T16:14:56.522Z,5.13
2023-04-09T16:17:24.032Z,5.45
2023-04-09T16:19:51.044Z,5.70
2023-04-09T16:22:17.976Z,5.28
2023-04-09T16:24:44.942Z,4.93
2023-04-09T16:27:13.597Z,5.97
2023-04-09T16:29:40.671Z,5.10
2023-04-09T16:32:07.753Z,5.50
2023-04-09T16:34:34.951Z,5.03
2023-04-09T16:37:01.990Z,4.68
2023-04-09T16:39:29.550Z,5.53
2023-04-09T16:41:58.369Z,5.45
2023-04-09T16:44:26.231Z,5.30
2023-04-09T16:46:53.214Z,5.50
2023-04-09T16:49:20.358Z,5.50
2023-04-09T16:51:47.347Z,5.88
2023-04-09T16:54:14.428Z,5.50
2023-04-09T16:56:41.511Z,5.15
2023-04-09T16:59:08.508Z,6.20
2023-04-09T17:01:35.983Z,6.55
2023-04-09T17:04:03.424Z,5.53
2023-04-09T17:06:30.892Z,5.45
2023-04-09T17:08:57.881Z,5.35
2023-04-09T17:11:25.134Z,6.22
2023-04-09T17:13:52.181Z,5.07
2023-04-09T17:16:19.128Z,5.00
2023-04-09T17:18:47.101Z,5.03
2023-04-09T17:21:14.156Z,5.53
2023-04-09T17:23:42.711Z,5.15
2023-04-09T17:26:09.696Z,5.45
2023-04-09T17:28:36.747Z,4.93
2023-04-09T17:31:03.898Z,5.35
2023-04-09T17:33:30.977Z,5.25
2023-04-09T17:35:58.007Z,5.93
2023-04-09T17:38:26.904Z,4.95
2023-04-09T17:40:54.132Z,5.10
2023-04-09T17:43:21.156Z,5.47
2023-04-09T17:45:49.290Z,5.05
2023-04-09T17:48:16.571Z,5.70
2023-04-09T17:50:43.817Z,5.40
2023-04-09T17:53:11.563Z,5.43
2023-04-09T17:55:38.691Z,6.25
2023-04-09T17:58:05.780Z,5.15
2023-04-09T18:00:34.367Z,5.65
2023-04-09T18:03:01.825Z,6.43
2023-04-09T18:05:29.923Z,5.88
2023-04-09T18:07:57.336Z,5.90
2023-04-09T18:10:24.351Z,5.30
2023-04-09T18:12:51.877Z,5.30
2023-04-09T18:15:19.312Z,5.32
2023-04-09T18:17:46.502Z,5.43
2023-04-09T18:20:15.387Z,5.00
2023-04-09T18:22:43.924Z,4.63
2023-04-09T18:25:11.506Z,5.03
2023-04-09T18:27:38.709Z,5.30
2023-04-09T18:30:06.764Z,4.50
2023-04-09T18:32:33.752Z,4.65
2023-04-09T18:35:00.973Z,4.72
2023-04-09T18:37:28.120Z,3.92
2023-04-09T18:39:55.367Z,4.88
2023-04-09T18:42:22.594Z,4.07
2023-04-09T18:44:49.744Z,3.92
2023-04-09T18:47:16.693Z,4.50
2023-04-09T18:49:43.713Z,5.00
2023-04-09T18:52:10.821Z,4.97
2023-04-09T18:54:39.001Z,5.20
2023-04-09T18:57:06.481Z,3.70
2023-04-09T18:59:34.937Z,5.20
2023-04-09T19:02:05.896Z,4.93
2023-04-09T19:04:39.699Z,4.10
2023-04-09T19:07:07.602Z,3.65
2023-04-09T19:09:34.853Z,3.78
2023-04-09T19:12:02.264Z,3.80
2023-04-09T19:14:29.480Z,4.03
2023-04-09T19:16:57.125Z,3.83
2023-04-09T19:19:24.335Z,4.50
2023-04-09T19:21:51.338Z,3.88
2023-04-09T19:24:18.413Z,4.63
2023-04-09T19:26:45.467Z,4.35
2023-04-09T19:29:12.465Z,4.03
2023-04-09T19:31:41.456Z,3.88
2023-04-09T19:34:10.906Z,4.18
2023-04-09T19:36:37.996Z,4.28
2023-04-09T19:39:05.968Z,3.50
2023-04-09T19:41:33.135Z,3.30
2023-04-09T19:44:01.405Z,3.13
2023-04-09T19:46:28.837Z,5.35
2023-04-09T19:48:56.749Z,3.95
2023-04-09T19:51:23.847Z,3.72
2023-04-09T19:53:51.166Z,4.32
2023-04-09T19:56:19.133Z,4.03
2023-04-09T19:58:46.625Z,4.50
2023-04-09T20:01:13.931Z,4.05
2023-04-09T20:03:41.583Z,4.50
2023-04-09T20:06:10.308Z,4.18
2023-04-09T20:08:38.251Z,4.25
2023-04-09T20:11:07.028Z,3.90
2023-04-09T20:13:34.371Z,3.85
2023-04-09T20:16:01.729Z,4.35
2023-04-09T20:18:28.947Z,3.10
2023-04-09T20:20:56.180Z,4.70
2023-04-09T20:23:23.317Z,3.88
2023-04-09T20:25:56.922Z,3.90
2023-04-09T20:28:24.185Z,3.17
2023-04-09T20:30:51.298Z,3.63
2023-04-09T20:33:18.765Z,3.33
2023-04-09T20:35:45.953Z,3.75
2023-04-09T20:38:13.119Z,3.83
2023-04-09T20:40:40.556Z,4.03
2023-04-09T20:43:07.772Z,4.20
2023-04-09T20:45:35.031Z,4.65
2023-04-09T20:48:02.447Z,4.72
2023-04-09T20:50:31.139Z,5.28
2023-04-09T20:52:59.006Z,5.45
2023-04-09T20:55:26.565Z,4.93
2023-04-09T20:57:58.476Z,4.22
2023-04-09T21:00:25.702Z,5.20
2023-04-09T21:02:53.227Z,5.97
2023-04-09T21:05:23.930Z,5.20
2023-04-09T21:07:53.195Z,5.38
2023-04-09T21:10:21.019Z,5.47
2023-04-09T21:12:48.355Z,5.18
2023-04-09T21:15:16.028Z,5.57
2023-04-09T21:17:43.230Z,4.80
2023-04-09T21:20:11.308Z,5.03
2023-04-09T21:22:38.522Z,5.53
2023-04-09T21:25:06.491Z,5.55
2023-04-09T21:27:33.760Z,5.55
2023-04-09T21:30:00.867Z,5.85
2023-04-09T21:32:28.127Z,5.65
2023-04-09T21:34:55.509Z,5.57
2023-04-09T21:37:22.671Z,5.35
2023-04-09T21:39:50.094Z,5.72
2023-04-09T21:42:17.155Z,5.25
2023-04-09T21:44:44.471Z,6.25
2023-04-09T21:47:12.327Z,4.93
2023-04-09T21:49:40.686Z,4.95
2023-04-09T21:52:14.507Z,4.57
2023-04-09T21:54:43.294Z,4.22
2023-04-09T21:57:11.341Z,4.13
2023-04-09T21:59:41.178Z,5.68
2023-04-09T22:02:09.772Z,4.95
2023-04-09T22:04:37.527Z,5.70
2023-04-09T22:07:04.874Z,5.28
2023-04-09T22:09:32.066Z,4.60
2023-04-09T22:11:59.837Z,4.18
2023-04-09T22:14:29.620Z,4.57
2023-04-09T22:17:01.731Z,4.93
2023-04-09T22:19:31.792Z,4.97
2023-04-09T22:21:59.103Z,4.82
2023-04-09T22:24:30.445Z,5.72
2023-04-09T22:27:01.756Z,5.35
2023-04-09T22:29:29.564Z,4.53
2023-04-09T22:31:56.888Z,5.32
2023-04-09T22:34:24.342Z,5.30
2023-04-09T22:36:51.474Z,6.07
2023-04-09T22:39:18.799Z,5.70
2023-04-09T22:41:46.050Z,5.60
2023-04-09T22:44:13.175Z,5.32
2023-04-09T22:46:40.274Z,6.13
2023-04-09T22:49:08.198Z,5.53
2023-04-09T22:51:35.401Z,6.82
2023-04-09T22:54:02.732Z,6.10
2023-04-09T22:56:33.580Z,7.80
2023-04-09T22:59:00.783Z,7.28
2023-04-09T23:01:28.301Z,7.78
2023-04-09T23:03:56.111Z,7.95
2023-04-09T23:06:25.636Z,7.65
2023-04-09T23:08:53.083Z,8.75
2023-04-09T23:11:21.294Z,7.72
2023-04-09T23:13:48.461Z,8.55
2023-04-09T23:16:15.681Z,8.02
2023-04-09T23:18:42.919Z,10.00
2023-04-09T23:21:10.966Z,9.07
2023-04-09T23:23:38.943Z,8.82
2023-04-09T23:26:06.714Z,10.25
2023-04-09T23:28:33.788Z,9.30
2023-04-09T23:31:01.091Z,10.00
2023-04-09T23:33:28.265Z,10.38
2023-04-09T23:35:55.466Z,10.98
2023-04-09T23:38:22.591Z,10.80
2023-04-09T23:40:49.870Z,12.23
2023-04-09T23:43:16.990Z,13.32
2023-04-09T23:45:44.410Z,15.13
2023-04-09T23:48:12.514Z,12.77
2023-04-09T23:50:41.343Z,12.60
2023-04-09T23:53:08.911Z,13.57
2023-04-09T23:55:41.116Z,13.32
2023-04-09T23:58:08.492Z,12.70
